Time;durP1;ratioP1;P1;durP2;ratioP2;P2;SDS_P1;SDS_P2;PMS_P1;PMS_P2;Temp;Humidity;BMP_temperature;BMP_pressure;BME280_temperature;BME280_humidity;BME280_pressure;Samples;Min_cycle;Max_cycle;Signal;HPM_P1;HPM_P2
2021/04/26 00:02:01;;;;;;;4.10;1.60;;;;;;;9.13;56.69;98371.50;5009080;28;20203;-70
2021/04/26 00:04:28;;;;;;;2.03;1.23;;;;;;;9.30;55.12;98369.47;5010902;28;20203;-70
2021/04/26 00:06:54;;;;;;;8.73;2.30;;;;;;;9.45;54.22;98370.31;5009138;28;20232;-70
2021/04/26 00:09:21;;;;;;;4.83;1.70;;;;;;;9.56;52.96;98375.16;5014460;28;20999;-70
2021/04/26 00:11:48;;;;;;;4.13;1.53;;;;;;;9.39;53.45;98369.19;5011294;28;20214;-70
2021/04/26 00:14:15;;;;;;;5.03;1.30;;;;;;;9.62;52.04;98363.75;5012968;28;20541;-70
2021/04/26 00:16:42;;;;;;;7.93;2.57;;;;;;;9.77;51.66;98368.06;5009163;28;20228;-70
2021/04/26 00:19:09;;;;;;;2.33;1.50;;;;;;;9.84;50.89;98368.94;5010729;28;20213;-70
2021/04/26 00:21:36;;;;;;;3.27;1.20;;;;;;;9.75;51.28;98356.72;4999611;28;20236;-70
2021/04/26 00:24:04;;;;;;;4.27;1.87;;;;;;;9.90;51.07;98349.53;5005483;28;20633;-70
2021/04/26 00:26:31;;;;;;;2.53;1.30;;;;;;;9.89;51.09;98347.06;5009605;28;20225;-70
2021/04/26 00:28:58;;;;;;;2.13;1.30;;;;;;;9.68;52.04;98350.50;5009443;28;20207;-70
2021/04/26 00:31:24;;;;;;;4.73;1.60;;;;;;;9.77;51.71;98346.72;5010798;28;20202;-70
2021/04/26 00:33:51;;;;;;;5.00;1.57;;;;;;;9.76;52.20;98346.91;5012232;28;20227;-70
2021/04/26 00:36:19;;;;;;;3.33;1.23;;;;;;;9.52;53.04;98340.06;5012628;28;20244;-70
2021/04/26 00:38:45;;;;;;;3.30;1.60;;;;;;;9.47;54.47;98342.47;5013478;28;20590;-70
2021/04/26 00:41:12;;;;;;;3.37;1.50;;;;;;;9.67;54.00;98332.88;5014147;28;20229;-70
2021/04/26 00:43:39;;;;;;;3.03;1.40;;;;;;;9.63;54.18;98330.75;5010942;28;20208;-70
2021/04/26 00:46:06;;;;;;;5.20;2.20;;;;;;;9.50;54.99;98334.13;5011163;28;20221;-70
2021/04/26 00:48:33;;;;;;;3.80;1.80;;;;;;;9.44;55.66;98320.72;5013590;28;20280;-70
2021/04/26 00:51:00;;;;;;;6.40;1.80;;;;;;;9.47;55.07;98315.00;5013693;28;20205;-70
2021/04/26 00:53:28;;;;;;;4.67;1.80;;;;;;;9.30;56.65;98306.41;5009956;28;20287;-70
2021/04/26 00:55:54;;;;;;;3.27;1.73;;;;;;;9.16;57.92;98299.25;5009399;28;20245;-70
2021/04/26 00:58:22;;;;;;;4.57;1.63;;;;;;;9.23;57.96;98292.16;5014247;28;20640;-70
2021/04/26 01:00:48;;;;;;;4.17;1.60;;;;;;;9.36;57.09;98295.00;5017064;28;20229;-70
2021/04/26 01:03:15;;;;;;;11.53;2.30;;;;;;;9.28;57.99;98281.78;5012749;28;20677;-70
2021/04/26 01:05:42;;;;;;;3.43;1.63;;;;;;;9.32;58.60;98277.72;5008296;28;20319;-70
2021/04/26 01:08:09;;;;;;;4.17;1.67;;;;;;;9.25;58.63;98278.66;5010113;28;20205;-70
2021/04/26 01:10:37;;;;;;;4.83;1.73;;;;;;;9.37;58.13;98271.84;5008734;28;20209;-70
2021/04/26 01:13:21;;;;;;;4.97;1.50;;;;;;;9.20;58.84;98267.75;5014764;28;20231;-70
2021/04/26 01:15:56;;;;;;;3.67;1.60;;;;;;;9.12;59.32;98267.84;5014993;28;20236;-70
2021/04/26 01:18:26;;;;;;;2.70;1.73;;;;;;;9.14;59.99;98266.63;5010254;28;20216;-70
2021/04/26 01:21:20;;;;;;;5.30;1.90;;;;;;;9.08;60.34;98262.06;5013967;28;20236;-69
2021/04/26 01:24:11;;;;;;;4.57;1.90;;;;;;;8.93;61.37;98252.44;4998083;28;20270;-69
2021/04/26 01:27:03;;;;;;;4.83;1.97;;;;;;;8.70;62.75;98257.88;5011274;28;20631;-69
2021/04/26 01:29:42;;;;;;;5.37;2.33;;;;;;;8.91;61.99;98251.78;5012909;28;20204;-70
2021/04/26 01:32:23;;;;;;;6.00;1.90;;;;;;;8.98;61.96;98247.41;5013116;28;20240;-70
2021/04/26 01:34:50;;;;;;;6.87;2.10;;;;;;;8.73;63.90;98246.84;5013067;28;20264;-68
2021/04/26 01:37:17;;;;;;;2.97;1.80;;;;;;;8.85;63.50;98244.53;5009009;28;20994;-70
2021/04/26 01:39:44;;;;;;;4.00;1.90;;;;;;;8.83;63.58;98242.06;5009994;28;20220;-69
2021/04/26 01:42:12;;;;;;;4.43;2.10;;;;;;;8.68;64.95;98238.59;5005564;28;20209;-70
2021/04/26 01:44:39;;;;;;;8.73;2.17;;;;;;;8.62;65.65;98247.28;5011275;28;20581;-70
2021/04/26 01:47:07;;;;;;;3.37;2.00;;;;;;;8.41;67.65;98249.84;5012467;28;20220;-70
2021/04/26 01:49:36;;;;;;;4.30;2.27;;;;;;;8.40;69.95;98250.88;5009900;28;20205;-70
2021/04/26 01:52:05;;;;;;;4.63;2.20;;;;;;;8.46;68.84;98242.16;5010910;28;20216;-70
2021/04/26 01:54:31;;;;;;;5.73;2.13;;;;;;;8.38;69.66;98244.06;5011533;28;20265;-70
2021/04/26 01:56:59;;;;;;;5.03;2.00;;;;;;;8.39;70.17;98237.75;5011653;28;20234;-69
2021/04/26 01:59:26;;;;;;;4.53;1.90;;;;;;;8.32;70.63;98240.28;5012448;28;20204;-68
2021/04/26 02:01:54;;;;;;;5.90;2.50;;;;;;;8.28;71.88;98232.88;5011239;28;20565;-69
2021/04/26 02:04:21;;;;;;;3.97;2.10;;;;;;;8.39;70.64;98233.25;5011643;28;20673;-69
2021/04/26 02:06:50;;;;;;;5.50;2.40;;;;;;;8.61;68.36;98239.50;5010185;28;20286;-69
2021/04/26 02:09:17;;;;;;;3.77;2.13;;;;;;;8.40;69.51;98234.91;5011327;28;20199;-69
2021/04/26 02:11:45;;;;;;;7.97;2.47;;;;;;;8.24;71.74;98235.06;5008963;28;20204;-69
2021/04/26 02:14:13;;;;;;;6.80;2.60;;;;;;;8.28;71.82;98236.34;5012902;28;20230;-69
2021/04/26 02:16:40;;;;;;;7.80;3.00;;;;;;;8.16;72.37;98237.75;5010212;28;20726;-69
2021/04/26 02:19:07;;;;;;;5.83;2.70;;;;;;;8.08;74.44;98224.53;5010082;28;20637;-69
2021/04/26 02:21:34;;;;;;;4.03;2.47;;;;;;;8.18;73.44;98235.72;5012494;28;20773;-69
2021/04/26 02:24:02;;;;;;;5.27;2.93;;;;;;;8.18;74.04;98238.41;5007112;28;20576;-69
2021/04/26 02:26:28;;;;;;;5.90;2.70;;;;;;;8.11;73.72;98242.78;5008790;28;20228;-69
2021/04/26 02:28:55;;;;;;;7.00;3.00;;;;;;;8.13;74.04;98242.63;5012321;28;20201;-70
2021/04/26 02:31:24;;;;;;;8.43;3.10;;;;;;;8.17;73.50;98239.41;5008167;28;20291;-69
2021/04/26 02:33:54;;;;;;;6.17;2.80;;;;;;;8.13;74.08;98242.63;5013886;28;20655;-69
2021/04/26 02:36:24;;;;;;;5.57;2.87;;;;;;;7.99;75.28;98238.91;5011638;28;20245;-69
2021/04/26 02:38:53;;;;;;;5.70;2.60;;;;;;;8.04;74.84;98241.03;5006886;28;20208;-69
2021/04/26 02:41:24;;;;;;;6.30;2.90;;;;;;;8.11;74.69;98244.59;5008361;28;20227;-69
2021/04/26 02:43:53;;;;;;;8.33;2.87;;;;;;;8.16;74.12;98236.91;5010703;28;20275;-69
2021/04/26 02:46:23;;;;;;;5.03;2.90;;;;;;;8.04;74.52;98238.38;5010091;28;20249;-69
2021/04/26 02:48:51;;;;;;;6.40;2.80;;;;;;;8.15;74.97;98227.31;5004632;28;20634;-69
2021/04/26 02:51:19;;;;;;;5.73;2.77;;;;;;;8.07;73.97;98227.41;5007951;28;20203;-70
2021/04/26 02:53:46;;;;;;;8.00;3.30;;;;;;;8.12;73.30;98225.03;5010036;28;20215;-70
2021/04/26 02:56:14;;;;;;;8.00;3.13;;;;;;;8.02;73.67;98227.09;5007965;28;20319;-71
2021/04/26 02:58:44;;;;;;;11.27;3.40;;;;;;;8.31;72.59;98220.03;5007578;28;20255;-69
2021/04/26 03:01:12;;;;;;;5.83;2.80;;;;;;;8.27;72.52;98220.59;5010460;28;20234;-69
2021/04/26 03:03:41;;;;;;;7.17;3.20;;;;;;;8.18;73.07;98214.47;5010777;28;20561;-69
2021/04/26 03:06:10;;;;;;;5.07;2.80;;;;;;;8.34;71.58;98209.06;5007072;28;20219;-69
2021/04/26 03:08:37;;;;;;;6.93;2.93;;;;;;;8.35;71.60;98207.19;5010090;28;20203;-69
2021/04/26 03:11:07;;;;;;;6.60;3.23;;;;;;;8.33;71.53;98206.56;5006784;28;20216;-69
2021/04/26 03:13:34;;;;;;;4.03;2.70;;;;;;;8.21;71.75;98208.84;5010129;28;20217;-69
2021/04/26 03:16:01;;;;;;;5.17;2.97;;;;;;;8.09;72.47;98206.75;5006806;28;20234;-69
2021/04/26 03:18:28;;;;;;;5.13;3.30;;;;;;;8.11;72.58;98194.09;5010456;28;20204;-70
2021/04/26 03:20:56;;;;;;;4.03;2.80;;;;;;;8.15;72.46;98198.91;5009017;28;20235;-70
2021/04/26 03:23:25;;;;;;;8.93;3.30;;;;;;;8.01;72.92;98201.53;5008351;28;20217;-70
2021/04/26 03:25:52;;;;;;;7.20;2.90;;;;;;;8.01;72.74;98197.03;5008036;28;20393;-69
2021/04/26 03:28:19;;;;;;;8.57;3.53;;;;;;;7.95;73.43;98196.91;5006017;28;20203;-69
2021/04/26 03:30:47;;;;;;;12.20;3.50;;;;;;;7.81;75.30;98193.22;5005586;28;20211;-69
2021/04/26 03:33:15;;;;;;;7.80;3.00;;;;;;;7.82;75.67;98192.22;5007651;28;20665;-70
2021/04/26 03:35:43;;;;;;;6.90;2.83;;;;;;;7.91;73.98;98185.03;4987760;28;593738;-70
2021/04/26 03:38:11;;;;;;;7.07;3.30;;;;;;;7.87;74.59;98183.72;5008953;28;20208;-70
2021/04/26 03:40:38;;;;;;;5.37;3.00;;;;;;;7.82;74.68;98186.91;5009218;28;20235;-70
2021/04/26 03:43:05;;;;;;;8.57;3.30;;;;;;;7.64;73.21;98188.22;5008247;28;20218;-69
2021/04/26 03:45:32;;;;;;;6.57;3.10;;;;;;;7.83;72.58;98180.59;5010032;28;20207;-70
2021/04/26 03:47:59;;;;;;;5.03;3.30;;;;;;;7.77;71.38;98183.94;5007620;28;20209;-69
2021/04/26 03:50:28;;;;;;;5.37;3.37;;;;;;;7.93;69.90;98189.16;5007191;28;20635;-70
2021/04/26 03:52:55;;;;;;;5.53;2.87;;;;;;;8.04;68.72;98187.88;5005533;28;20211;-69
2021/04/26 03:55:23;;;;;;;6.00;3.30;;;;;;;7.78;70.25;98192.75;5010309;28;20212;-72
2021/04/26 03:57:50;;;;;;;6.03;2.87;;;;;;;7.81;69.54;98190.56;5010893;28;20208;-69
2021/04/26 04:00:19;;;;;;;9.77;3.17;;;;;;;7.52;69.16;98187.81;5009721;28;20212;-69
2021/04/26 04:02:46;;;;;;;5.57;2.80;;;;;;;7.65;68.87;98198.69;5010116;28;20675;-70
2021/04/26 04:05:14;;;;;;;11.67;3.97;;;;;;;7.73;68.10;98193.31;5013162;28;20214;-71
2021/04/26 04:07:42;;;;;;;7.53;2.93;;;;;;;7.91;67.24;98185.84;5013870;28;20264;-69
2021/04/26 04:10:12;;;;;;;5.30;2.93;;;;;;;7.73;66.28;98193.31;5012695;28;20203;-69
2021/04/26 04:12:39;;;;;;;4.80;2.60;;;;;;;7.82;66.46;98186.91;5014645;28;20215;-69
2021/04/26 04:15:07;;;;;;;5.77;2.80;;;;;;;7.74;68.31;98188.81;5015071;28;20573;-69
2021/04/26 04:17:34;;;;;;;6.07;3.03;;;;;;;7.72;66.36;98194.28;5014027;28;20727;-69
2021/04/26 04:20:00;;;;;;;6.00;2.80;;;;;;;7.58;66.26;98187.13;5014455;28;20211;-69
2021/04/26 04:22:27;;;;;;;8.53;3.17;;;;;;;7.57;66.89;98188.09;5014379;28;20195;-69
2021/04/26 04:24:55;;;;;;;6.27;2.50;;;;;;;7.49;66.29;98190.00;5013387;28;20199;-74
2021/04/26 04:27:22;;;;;;;4.03;2.57;;;;;;;7.73;65.86;98188.00;5011895;28;20228;-70
2021/04/26 04:29:48;;;;;;;6.53;2.97;;;;;;;7.47;65.67;98186.69;5012467;28;20208;-69
2021/04/26 04:32:15;;;;;;;5.43;3.00;;;;;;;7.64;64.54;98180.25;5013023;28;20814;-71
2021/04/26 04:34:42;;;;;;;5.83;3.13;;;;;;;7.58;64.85;98176.50;5013075;28;20208;-72
2021/04/26 04:37:09;;;;;;;6.87;2.73;;;;;;;7.63;64.70;98179.44;5014110;28;20236;-69
2021/04/26 04:39:35;;;;;;;3.50;2.40;;;;;;;7.54;64.83;98183.16;5009212;28;20759;-73
2021/04/26 04:42:03;;;;;;;5.10;2.80;;;;;;;7.79;64.36;98189.09;5013571;28;20232;-75
2021/04/26 04:44:30;;;;;;;8.77;2.57;;;;;;;7.75;65.33;98182.47;5015034;28;20223;-69
2021/04/26 04:46:57;;;;;;;5.27;2.77;;;;;;;7.64;67.42;98178.44;5008135;28;20240;-70
2021/04/26 04:49:24;;;;;;;5.73;2.93;;;;;;;7.73;66.43;98176.53;5013900;28;20214;-71
2021/04/26 04:51:51;;;;;;;5.53;3.27;;;;;;;7.73;66.04;98188.00;5007706;28;20687;-69
2021/04/26 04:54:18;;;;;;;5.87;2.70;;;;;;;7.57;66.39;98187.28;5014695;28;20306;-70
2021/04/26 04:56:45;;;;;;;6.17;3.20;;;;;;;7.71;65.38;98186.53;5006978;28;20227;-71
2021/04/26 04:59:12;;;;;;;11.07;3.03;;;;;;;7.91;66.31;98185.84;5012623;28;20237;-70
2021/04/26 05:01:39;;;;;;;7.30;3.13;;;;;;;7.82;67.91;98176.28;5013501;28;20228;-71
2021/04/26 05:04:06;;;;;;;6.07;2.70;;;;;;;7.74;67.99;98176.38;5015595;28;20202;-71
2021/04/26 05:06:33;;;;;;;6.93;3.47;;;;;;;7.96;68.25;98182.66;5001929;28;20624;-71
2021/04/26 05:09:00;;;;;;;10.03;3.43;;;;;;;7.78;68.87;98184.78;5014532;28;20201;-71
2021/04/26 05:11:26;;;;;;;5.53;2.53;;;;;;;8.31;66.68;98185.47;5013036;28;20234;-71
2021/04/26 05:13:53;;;;;;;5.07;2.80;;;;;;;8.05;67.09;98190.34;5014332;28;20211;-71
2021/04/26 05:16:21;;;;;;;4.20;2.90;;;;;;;8.35;66.08;98189.44;5007420;28;20541;-71
2021/04/26 05:18:48;;;;;;;6.63;3.23;;;;;;;8.23;64.42;98185.53;5015934;28;20207;-71
2021/04/26 05:21:16;;;;;;;7.47;2.90;;;;;;;8.41;63.83;98193.16;5011391;28;20247;-71
2021/04/26 05:23:43;;;;;;;7.40;3.17;;;;;;;8.06;64.52;98199.13;5013639;28;20260;-71
2021/04/26 05:26:10;;;;;;;10.10;3.20;;;;;;;8.50;63.48;98200.91;5008716;28;20283;-72
2021/04/26 05:28:37;;;;;;;4.90;2.97;;;;;;;8.48;61.40;98204.75;5013228;28;20210;-71
2021/04/26 05:31:04;;;;;;;9.57;3.30;;;;;;;8.37;59.94;98215.84;5012888;28;20205;-70
2021/04/26 05:33:32;;;;;;;4.87;2.67;;;;;;;8.82;59.07;98208.50;5013896;28;20208;-72
2021/04/26 05:35:58;;;;;;;6.23;2.87;;;;;;;8.76;58.80;98208.41;5009369;28;20245;-72
2021/04/26 05:38:25;;;;;;;6.80;2.60;;;;;;;8.83;57.12;98212.00;5013886;28;20691;-71
2021/04/26 05:40:52;;;;;;;6.47;2.50;;;;;;;8.50;58.38;98214.19;5016474;28;20227;-71
2021/04/26 05:43:19;;;;;;;5.40;2.60;;;;;;;7.93;59.33;98213.06;5012921;28;20210;-71
2021/04/26 05:45:46;;;;;;;5.47;2.70;;;;;;;8.25;59.14;98203.97;5012964;28;20229;-71
2021/04/26 05:48:13;;;;;;;6.13;2.97;;;;;;;8.83;57.17;98206.66;5014019;28;20209;-71
2021/04/26 05:50:40;;;;;;;8.50;2.80;;;;;;;9.27;55.17;98204.72;5013282;28;20206;-71
2021/04/26 05:53:07;;;;;;;4.23;2.20;;;;;;;9.60;53.87;98213.91;5014097;28;20203;-76
2021/04/26 05:55:34;;;;;;;5.43;2.90;;;;;;;9.69;53.19;98220.78;5012717;28;20234;-72
2021/04/26 05:58:01;;;;;;;4.97;2.70;;;;;;;8.95;55.29;98215.81;5016864;28;20209;-71
2021/04/26 06:00:28;;;;;;;8.30;3.10;;;;;;;8.97;55.60;98203.97;5014199;28;20211;-70
2021/04/26 06:02:55;;;;;;;7.90;3.20;;;;;;;9.51;53.93;98213.22;5021864;28;20291;-70
2021/04/26 06:05:21;;;;;;;6.13;2.70;;;;;;;9.51;53.15;98217.72;5015415;28;20293;-71
2021/04/26 06:07:49;;;;;;;7.47;2.77;;;;;;;9.78;51.78;98222.28;5006870;28;20238;-70
2021/04/26 06:10:16;;;;;;;7.47;2.80;;;;;;;9.33;52.70;98223.44;5012245;28;20764;-70
2021/04/26 06:12:43;;;;;;;8.47;2.60;;;;;;;9.66;51.64;98226.47;5012564;28;20204;-71
2021/04/26 06:15:10;;;;;;;6.23;2.77;;;;;;;9.67;53.46;98222.78;5014011;28;20304;-70
2021/04/26 06:17:37;;;;;;;6.80;2.47;;;;;;;9.61;52.56;98219.06;5012670;28;20229;-72
2021/04/26 06:20:06;;;;;;;5.57;2.57;;;;;;;9.12;52.28;98220.75;5013920;28;20203;-72
2021/04/26 06:22:33;;;;;;;7.53;2.47;;;;;;;9.73;51.26;98217.53;5013632;28;20225;-71
2021/04/26 06:25:01;;;;;;;7.00;2.73;;;;;;;9.61;51.08;98231.53;5012594;28;20305;-71
2021/04/26 06:27:28;;;;;;;8.67;3.13;;;;;;;10.12;50.78;98225.09;5010106;28;20284;-70
2021/04/26 06:29:54;;;;;;;4.50;2.63;;;;;;;9.93;51.82;98223.88;5020058;28;20210;-71
2021/04/26 06:32:23;;;;;;;6.47;3.07;;;;;;;9.16;52.60;98222.03;5016339;28;20213;-73
2021/04/26 06:34:50;;;;;;;8.07;2.83;;;;;;;9.25;53.94;98220.09;5020215;28;20575;-72
2021/04/26 06:37:17;;;;;;;5.07;2.73;;;;;;;9.49;52.06;98227.75;5011886;28;20708;-71
2021/04/26 06:39:44;;;;;;;8.13;2.77;;;;;;;9.98;50.79;98224.13;5013333;28;20203;-71
2021/04/26 06:42:12;;;;;;;4.27;2.90;;;;;;;10.28;49.80;98222.13;5010204;28;20252;-71
2021/04/26 06:44:39;;;;;;;3.87;2.63;;;;;;;10.43;48.82;98226.38;5009527;28;20265;-71
2021/04/26 06:47:06;;;;;;;5.20;2.60;;;;;;;10.13;50.62;98220.59;5011385;28;20226;-71
2021/04/26 06:49:33;;;;;;;10.60;3.27;;;;;;;10.65;48.76;98222.59;5011056;28;20254;-71
2021/04/26 06:52:00;;;;;;;5.37;3.00;;;;;;;10.55;48.09;98227.47;5010699;28;20615;-71
2021/04/26 06:54:26;;;;;;;19.73;4.13;;;;;;;10.98;48.04;98222.78;5013208;28;20641;-71
2021/04/26 06:56:53;;;;;;;9.80;3.70;;;;;;;10.28;50.13;98227.47;5013075;28;20242;-71
2021/04/26 06:59:21;;;;;;;12.83;4.20;;;;;;;9.87;50.91;98224.63;5012331;28;20202;-71
2021/04/26 07:01:48;;;;;;;8.73;3.10;;;;;;;10.32;49.96;98226.91;5012924;28;20231;-71
2021/04/26 07:04:14;;;;;;;4.70;2.77;;;;;;;10.45;49.32;98221.66;5012762;28;20210;-71
2021/04/26 07:06:41;;;;;;;5.40;2.90;;;;;;;10.48;48.32;98227.63;5010977;28;20227;-71
2021/04/26 07:09:08;;;;;;;6.10;2.97;;;;;;;10.71;48.29;98227.16;5012465;28;20575;-71
2021/04/26 07:11:36;;;;;;;7.27;3.43;;;;;;;11.06;47.78;98225.31;5012582;28;20195;-71
2021/04/26 07:14:03;;;;;;;6.77;2.83;;;;;;;11.12;46.49;98219.97;5012931;28;20211;-71
2021/04/26 07:16:32;;;;;;;8.93;2.87;;;;;;;11.62;44.58;98226.78;5012289;28;20238;-72
2021/04/26 07:18:59;;;;;;;5.47;3.27;;;;;;;11.75;45.13;98223.31;5015003;28;20298;-72
2021/04/26 07:21:26;;;;;;;5.23;2.97;;;;;;;10.82;47.72;98212.44;5012007;28;20373;-72
2021/04/26 07:23:52;;;;;;;8.03;3.33;;;;;;;10.70;48.59;98212.16;5012263;28;20207;-72
2021/04/26 07:26:19;;;;;;;6.63;3.83;;;;;;;10.51;48.46;98212.84;5012371;28;20227;-72
2021/04/26 07:28:46;;;;;;;4.80;3.10;;;;;;;10.18;49.42;98202.16;5012086;28;20207;-72
2021/04/26 07:31:13;;;;;;;5.10;2.90;;;;;;;11.20;47.07;98201.09;5009661;28;20207;-71
2021/04/26 07:33:40;;;;;;;4.63;2.73;;;;;;;11.02;47.15;98200.81;5012197;28;20663;-72
2021/04/26 07:36:08;;;;;;;8.30;2.90;;;;;;;11.44;46.08;98192.56;5011790;28;20227;-72
2021/04/26 07:38:35;;;;;;;4.97;3.00;;;;;;;11.78;45.81;98194.31;5011974;28;20264;-72
2021/04/26 07:41:02;;;;;;;5.63;3.37;;;;;;;11.88;44.58;98200.06;5004418;28;20274;-72
2021/04/26 07:43:29;;;;;;;4.83;2.90;;;;;;;11.70;44.22;98191.00;5007433;28;20200;-72
2021/04/26 07:45:55;;;;;;;8.13;3.43;;;;;;;11.71;44.51;98193.44;5012173;28;20239;-72
2021/04/26 07:48:22;;;;;;;7.20;2.97;;;;;;;11.77;44.56;98187.31;5009579;28;20208;-72
2021/04/26 07:50:50;;;;;;;6.53;3.10;;;;;;;11.85;43.17;98197.00;5009653;28;20207;-72
2021/04/26 07:53:17;;;;;;;7.70;3.23;;;;;;;11.03;45.17;98194.47;5012096;28;20206;-72
2021/04/26 07:55:44;;;;;;;7.50;3.57;;;;;;;11.69;44.59;98190.16;5011563;28;20226;-72
2021/04/26 07:58:11;;;;;;;8.33;3.03;;;;;;;12.11;42.91;98200.47;5011980;28;20211;-72
2021/04/26 08:00:37;;;;;;;6.37;2.90;;;;;;;11.74;43.77;98195.72;5010845;28;20202;-70
2021/04/26 08:03:05;;;;;;;7.10;3.20;;;;;;;11.98;43.87;98199.66;5019149;28;20202;-71
2021/04/26 08:05:32;;;;;;;5.03;3.30;;;;;;;12.25;42.04;98187.94;5013320;28;20210;-71
2021/04/26 08:07:59;;;;;;;6.00;3.23;;;;;;;12.74;41.29;98186.41;5011938;28;20586;-72
2021/04/26 08:10:26;;;;;;;6.80;3.17;;;;;;;12.68;41.35;98192.63;5011084;28;20214;-72
2021/04/26 08:12:53;;;;;;;7.43;2.90;;;;;;;12.88;40.36;98187.19;5009842;28;20216;-71
2021/04/26 08:15:22;;;;;;;5.30;3.30;;;;;;;12.74;40.38;98192.56;5011483;28;20216;-73
2021/04/26 08:17:48;;;;;;;10.17;3.27;;;;;;;12.11;43.27;98183.63;5001816;28;20220;-73
2021/04/26 08:20:15;;;;;;;5.47;3.20;;;;;;;11.40;43.76;98193.97;5014634;28;20207;-72
2021/04/26 08:22:42;;;;;;;8.63;3.07;;;;;;;11.85;43.54;98172.94;5011584;28;20235;-72
2021/04/26 08:25:11;;;;;;;7.27;3.10;;;;;;;11.54;43.82;98184.97;5008922;28;20201;-72
2021/04/26 08:27:38;;;;;;;6.37;3.23;;;;;;;12.57;42.20;98173.69;5008419;28;20238;-72
2021/04/26 08:30:07;;;;;;;6.17;3.40;;;;;;;12.33;42.74;98167.16;5006928;28;20209;-72
2021/04/26 08:32:34;;;;;;;6.50;3.07;;;;;;;12.81;41.24;98168.47;5007760;28;20207;-72
2021/04/26 08:35:00;;;;;;;4.43;2.50;;;;;;;13.06;41.59;98169.44;5004642;28;20562;-73
2021/04/26 08:37:27;;;;;;;6.13;3.00;;;;;;;12.69;40.72;98184.34;5004448;28;20239;-73
2021/04/26 08:39:54;;;;;;;5.43;3.37;;;;;;;13.18;39.78;98174.97;5005787;28;20212;-74
2021/04/26 08:42:22;;;;;;;5.17;2.90;;;;;;;13.05;40.85;98167.81;5010781;28;20223;-74
2021/04/26 08:44:49;;;;;;;7.63;3.40;;;;;;;12.98;40.53;98187.59;5007499;28;20206;-70
2021/04/26 08:47:18;;;;;;;7.77;3.03;;;;;;;13.61;39.24;98165.22;5006216;28;20274;-74
2021/04/26 08:49:44;;;;;;;10.03;2.87;;;;;;;13.67;39.29;98167.88;5011290;28;20209;-73
2021/04/26 08:52:11;;;;;;;6.83;3.73;;;;;;;13.93;38.54;98169.56;5014957;28;20204;-73
2021/04/26 08:54:38;;;;;;;8.90;3.37;;;;;;;14.24;37.27;98174.91;5015356;28;20207;-73
2021/04/26 08:57:05;;;;;;;6.67;3.53;;;;;;;14.08;37.84;98167.38;5012316;28;20326;-73
2021/04/26 08:59:33;;;;;;;9.00;3.00;;;;;;;14.02;38.61;98168.22;5013137;28;20204;-73
2021/04/26 09:02:02;;;;;;;5.37;3.10;;;;;;;14.54;38.14;98165.13;5022166;28;20229;-74
2021/04/26 09:04:29;;;;;;;6.27;3.50;;;;;;;14.15;37.99;98178.88;5021966;28;20265;-73
2021/04/26 09:06:59;;;;;;;6.17;2.80;;;;;;;13.53;38.22;98182.38;5017506;28;20293;-73
2021/04/26 09:09:50;;;;;;;6.33;3.07;;;;;;;14.32;38.05;98182.66;5016327;28;20681;-72
2021/04/26 09:12:26;;;;;;;6.17;2.97;;;;;;;13.88;39.31;98172.06;5016167;28;20290;-73
2021/04/26 09:14:55;;;;;;;7.67;3.10;;;;;;;13.55;38.65;98171.47;5013900;28;20260;-72
2021/04/26 09:17:26;;;;;;;9.23;3.37;;;;;;;13.94;38.66;98169.31;5015530;28;20237;-72
2021/04/26 09:19:54;;;;;;;5.07;3.23;;;;;;;14.35;38.54;98160.75;5012711;28;20221;-73
2021/04/26 09:22:42;;;;;;;7.33;3.40;;;;;;;14.31;37.50;98155.00;5014895;28;20233;-73
2021/04/26 09:25:27;;;;;;;7.13;3.07;;;;;;;14.63;37.13;98166.50;5014260;28;20210;-74
2021/04/26 09:27:56;;;;;;;8.87;3.23;;;;;;;14.69;37.01;98161.03;5013567;28;20273;-74
2021/04/26 09:30:44;;;;;;;10.17;3.40;;;;;;;15.53;35.99;98164.56;5009341;28;20598;-74
2021/04/26 09:33:33;;;;;;;7.00;2.90;;;;;;;14.43;37.21;98155.13;5006786;28;20209;-73
2021/04/26 09:36:14;;;;;;;8.10;3.30;;;;;;;14.86;36.67;98151.34;5013430;28;20237;-73
2021/04/26 09:38:44;;;;;;;5.37;3.17;;;;;;;15.38;36.21;98150.72;5006546;28;20215;-74
2021/04/26 09:41:19;;;;;;;8.80;3.30;;;;;;;15.59;36.10;98150.19;5011588;28;20223;-74
2021/04/26 09:43:48;;;;;;;9.27;3.73;;;;;;;14.84;36.03;98149.94;5008752;28;20207;-74
2021/04/26 09:46:17;;;;;;;5.70;3.23;;;;;;;15.88;34.37;98148.53;5013888;28;20277;-72
2021/04/26 09:48:44;;;;;;;6.97;3.60;;;;;;;15.26;36.10;98141.75;5012776;28;20207;-72
2021/04/26 09:51:17;;;;;;;5.77;3.20;;;;;;;15.63;36.34;98134.41;5014395;28;20223;-72
2021/04/26 09:54:02;;;;;;;6.30;3.07;;;;;;;16.08;35.68;98141.78;5013032;28;20674;-73
2021/04/26 09:56:30;;;;;;;6.00;3.07;;;;;;;15.69;36.84;98133.50;5013030;28;20601;-74
2021/04/26 09:58:58;;;;;;;7.33;3.57;;;;;;;15.60;36.62;98137.56;5010776;28;20676;-74
2021/04/26 10:01:26;;;;;;;5.67;3.10;;;;;;;15.69;35.86;98139.69;5011521;28;20231;-73
2021/04/26 10:03:54;;;;;;;8.27;2.93;;;;;;;15.23;35.71;98144.03;5013496;28;20217;-73
2021/04/26 10:06:23;;;;;;;8.60;3.80;;;;;;;16.05;34.79;98141.44;5013750;28;20223;-73
2021/04/26 10:08:52;;;;;;;6.33;3.10;;;;;;;15.78;35.27;98138.31;5006979;28;20235;-73
2021/04/26 10:11:20;;;;;;;5.40;3.20;;;;;;;15.43;36.00;98133.88;5008629;28;20592;-72
2021/04/26 10:13:47;;;;;;;4.67;3.10;;;;;;;15.53;35.65;98134.97;5013196;28;20698;-73
2021/04/26 10:16:18;;;;;;;4.20;3.03;;;;;;;15.80;36.42;98127.34;5007679;28;20226;-73
2021/04/26 10:18:46;;;;;;;4.80;3.20;;;;;;;15.97;35.10;98131.81;5009390;28;20253;-74
2021/04/26 10:21:33;;;;;;;5.87;3.43;;;;;;;15.88;36.79;98127.00;5010440;28;20571;-73
2021/04/26 10:24:17;;;;;;;7.23;3.40;;;;;;;16.24;34.41;98134.88;5002938;28;20231;-74
2021/04/26 10:26:48;;;;;;;7.87;3.30;;;;;;;16.14;34.75;98122.00;5009372;28;20229;-72
2021/04/26 10:29:17;;;;;;;5.23;2.87;;;;;;;16.64;35.07;98116.97;5014525;28;20205;-73
2021/04/26 10:32:07;;;;;;;5.33;3.27;;;;;;;16.29;34.46;98122.34;5016854;28;20212;-73
2021/04/26 10:34:36;;;;;;;7.10;3.40;;;;;;;15.63;34.78;98131.72;5013947;28;20217;-73
2021/04/26 10:37:04;;;;;;;6.73;3.40;;;;;;;16.59;33.99;98115.00;5012601;28;20234;-72
2021/04/26 10:39:32;;;;;;;7.70;3.43;;;;;;;16.83;33.66;98108.50;5014034;28;20212;-71
2021/04/26 10:42:08;;;;;;;5.50;3.17;;;;;;;16.50;33.40;98108.31;5012903;28;20234;-73
2021/04/26 10:44:52;;;;;;;5.30;3.13;;;;;;;15.81;33.91;98108.25;5009411;28;20219;-74
2021/04/26 10:47:23;;;;;;;6.10;3.33;;;;;;;16.65;33.23;98105.13;5010852;28;20670;-73
2021/04/26 10:49:52;;;;;;;5.90;3.20;;;;;;;16.57;33.28;98103.63;5009158;28;20657;-72
2021/04/26 10:52:34;;;;;;;5.37;3.23;;;;;;;17.49;32.35;98094.47;5007621;28;20199;-71
2021/04/26 10:55:02;;;;;;;5.00;3.10;;;;;;;16.94;33.10;98091.50;5003690;28;20218;-73
2021/04/26 10:57:33;;;;;;;5.20;3.40;;;;;;;17.82;32.12;98094.50;5007948;28;20601;-73
2021/04/26 11:00:36;;;;;;;6.87;3.30;;;;;;;16.93;33.42;98092.53;5010932;28;20343;-73
2021/04/26 11:03:32;;;;;;;8.83;4.00;;;;;;;17.44;33.55;98089.81;4980281;28;20256;-73
2021/04/26 11:06:11;;;;;;;5.67;4.00;;;;;;;16.91;33.97;98069.56;5008068;28;20231;-73
2021/04/26 11:08:41;;;;;;;7.73;3.10;;;;;;;17.18;33.22;98067.97;5005023;28;20222;-72
2021/04/26 11:11:12;;;;;;;6.30;3.37;;;;;;;16.95;32.81;98076.94;5011181;28;20196;-73
2021/04/26 11:13:41;;;;;;;4.87;3.33;;;;;;;16.86;32.84;98064.91;5008648;28;20238;-74
2021/04/26 11:16:11;;;;;;;7.70;3.70;;;;;;;17.24;33.72;98057.03;5008216;28;20267;-72
2021/04/26 11:18:39;;;;;;;5.83;3.97;;;;;;;17.24;32.88;98059.72;5011563;28;20218;-72
2021/04/26 11:21:11;;;;;;;7.80;3.57;;;;;;;17.03;32.38;98063.06;5011630;28;20237;-73
2021/04/26 11:23:42;;;;;;;6.10;3.50;;;;;;;17.68;33.37;98044.59;5003213;28;20250;-73
2021/04/26 11:26:13;;;;;;;7.37;3.07;;;;;;;17.12;32.66;98037.38;5012424;28;20236;-72
2021/04/26 11:29:07;;;;;;;7.10;3.30;;;;;;;17.17;32.23;98036.66;5011158;28;20217;-80
2021/04/26 11:32:02;;;;;;;9.27;4.00;;;;;;;17.37;32.06;98028.94;5010610;28;20203;-73
2021/04/26 11:35:06;;;;;;;4.77;3.17;;;;;;;17.68;32.23;98021.13;5006993;28;20211;-72
2021/04/26 11:37:35;;;;;;;7.97;3.67;;;;;;;17.78;31.14;98015.09;5011272;28;20603;-70
2021/04/26 11:40:14;;;;;;;6.47;3.60;;;;;;;17.28;31.86;98014.19;5008166;28;20207;-71
2021/04/26 11:42:41;;;;;;;5.63;3.50;;;;;;;17.65;31.28;98021.63;5012062;28;20233;-73
2021/04/26 11:45:10;;;;;;;6.13;3.10;;;;;;;17.25;30.83;98017.38;5008130;28;20664;-72
2021/04/26 11:47:37;;;;;;;8.27;3.73;;;;;;;17.10;31.64;98019.78;5009755;28;20223;-72